Aérodrome :
LOGIN :

S'inscrire | Disclaimer

   EN    FR    IT 

 










Légende :    VFR   VFR Marginal   IFR   IFR Intensif   IFR Très Intensif
Visi : 
Plafond : 
>= 8 km
>= 3000ft
5 à 8 km
1000 à 3000 ft
1500m à 5 km
500 à 1000 ft
800 à 1500m
200 à 500 ft
< 800m
< 200 ft
Symboles :   Orages  Brouillard  Fortes neiges  Fortes précipitations  Vent > 20 kt
SIGMETs :   Divers  Orages  Givrage  Turbulence  Onde Orograph.  Cendres Volcan.






- Altitude de l'aérodrome : 0 ft


ENSL - Sleipner A Platform

DERNIER METAR :
  • 020720Z AUTO 27051KT 9999NDV -SHRA BKN018/// 06/02 Q0993 W04/S5

METARs EXPIRÉS :
  • 020650Z AUTO 25051KT 5000NDV -SHRA BKN025/// 06/03 Q0993 RESHRA W04/S5
  • 020620Z AUTO 26048KT 6000NDV -SHRASN SCT021/// BKN031/// BKN062/// 06/03 Q0993 W04/S5
  • 020550Z AUTO 25048KT 7000NDV -SHRA BKN025/// BKN056/// 07/03 Q0994 W04/S5
  • 020520Z AUTO 25050KT 9999NDV BKN027/// BKN058/// 07/03 Q0994 W04/S5
  • 020450Z AUTO 24049KT 9999NDV -DZ BKN030/// 07/03 Q0996 W04/S5

Prévision TAF périmée.



MET'MAP, la Météo Aéronautique d'un coup d'oeil ! - Copyright ORBIFLY Décembre 2007 - Disclaimer

ORBIFLY MET'MAP TEAM :

Programmation & Développement : Alexandra Zaïnal
Sur une idée originale de : Baudouin d'Aumeries
Assistance à la programmation : Marc-Olivier Méhu
Soutien technique & logistique : Manuel Goepfert

Contact : metmap@orbifly.com




SOURCES & CREDITS :

   NOAA